Orlando, FL (32810)

1:27 PM EDT on August 26, 2016 (GMT -0400)
| | Change Station

Elev -9999 ft 0.00 °N, 0.00 °E | Updated

Thunderstorm
Thunderstorm
81 °F
Feels Like 85 °F
N
16
Wind Variable Wind from ENE
Gusts 22 mph

Today
High -- | Low -- °F
--% Chance of Precip.
Yesterday
High -- | Low -- °F
Precip. -- in
Pressure 30.00 in
Visibility 10.0 miles
Clouds Few 3000 ft
Scattered Clouds 3800 ft
Mostly Cloudy 4700 ft
Heat Index 85 °F
Dew Point 73 °F
Humidity 78%
Rainfall --
Snow Depth Not available.
7:01 AM 7:53 PM
Waning Crescent, 33% visible
METAR KORL 261653Z 08015G19KT 10SM FEW030 SCT038 BKN047 31/24 A2999 RMK AO2 SLP158 T03110239
Pressure 30.00 in
Visibility 10.0 miles
Clouds Few 3000 ft
Scattered Clouds 3800 ft
Mostly Cloudy 4700 ft
Heat Index 85 °F
Dew Point 73 °F
Humidity 78%
Rainfall --
Snow Depth Not available.
7:01 AM 7:53 PM
Waning Crescent, 33% visible
METAR KORL 261653Z 08015G19KT 10SM FEW030 SCT038 BKN047 31/24 A2999 RMK AO2 SLP158 T03110239

10-Day Weather Forecast

Almanac

Astronomy

Aug. 26, 2016 Rise Set
Actual Time
Civil Twilight
Nautical Twilight
Astronomical Twilight
Moon
Length of Visible Light
Length of Day
Tomorrow will be .
, % of the Moon is Illuminated

Today's Extremes

State Highs State Lows

Community

WunderPhotos

Upload Photos

1,935,145 photos uploaded!

WunderBlog® & News

Nearby

Air Quality

  Air Quality AQ Index Pollutant
Not available.

Snow Depth

Station Depth Elevation

Earthquake Activity

City Distance Mag. Time & Date
Minimum magnitude displayed is 2.5.

Coastal Water Temperatures

Place Temperature

Stations

Nearby Weather Stations

Station Location Temp. Windchill Dew Point Humidity Wind Precip. Elev Updated Type
                   

Watches & Warnings

There are currently no watches in effect.